Higginsport, Ohio
Current Conditions -  °F | °C
As of 5:15 AM on Thursday 23 Oct 2014 (Local Time) from KFGX Reporting Station
Scattered Clouds Scattered Clouds  
Wind Chill:   Ceiling: Unl
Heat Index:   Visibility: 10mi
Dew Point:   Wind: 0mph
Humidity: 79%   Direction: NA
Pressure: 30.24"   Gusts: NA
Location:  38.79°N, 83.97°W
Report Text: KFGX 230915Z AUTO 00000KT 10SM SCT028 08/04 A3024 RMK AO2 T00780043
Loading
Personal Weather Stations






























Interactive Weather Map
Tropical Storm Tracking
New forecast layout! Learn more

10-Day Weather Forecast

Advertisements
Track Severe Weather on mobile